KAZE

Details ICAO KAZE
Name HAZLEHURST
Region United States
Timezone America/New_York (UTC-4.0)
Plans Departing 3
Arriving 1
Stats Elevation 255 ft / 78 m (AMSL)
Location 31.884663° -82.647380°
Runways 1
Magnetic Variation 6.081° W
Sunrise 2018-05-21 10:31:21 UTC / 2018-05-21 06:31:21 Local
Sunset 2018-05-22 00:25:54 UTC / 2018-05-21 20:25:54 Local
Advertisement - Login to hide

Runways

ID Width Length Bearing (true) Bearing (mag) Surface Threshold Offset Overrun Length
14 75 ft / 23 m 4,513 ft / 1,375 m 140.74° 146.82° Asphalt 0 ft / 0 m 0 ft / 0 m
32 75 ft / 23 m 4,513 ft / 1,375 m 320.74° 326.82° Asphalt 0 ft / 0 m 0 ft / 0 m

Map

Weather


0- 5 10 15 20 25 30 35+ Temperature / ° C

Clouds and Precipitation
Forecast for 2018-05-21 06:00 UTC. Updated 4 hours ago

Ground ~20,000 ft ~40,000 ft Winds

METAR

KAZE 210910Z AUTO 10004KT 5SM BR 22/20 A3009 RMK AO2 T02180201

TAF

Not found

Frequencies

Unicom 122.80 MHz CTAF/UNICOM
Warning: Do not use this data for real-world aviation or navigation. No guarantee of current accuracy is given.